NORTHERN QUEENS  -  Air Quality Alert Air Quality Alert        SOUTHERN QUEENS  -  Air Quality Alert Air Quality Alert      

Active alerts

Northern Queens
  Details for Northern Queens Air Quality Alert
Southern Queens
  Details for Southern Queens Air Quality Alert


WXM80 ListenWXM80 Stop

You find our weather info also at:

UK Metoffice

WeatherCloud

Weather Underground

Northeastern Weather Network

AWEKAS

Citizen Weather Observer Program (CWOP)

HAMweather, WeatherForYou, PWS Weather


Weather Underground History page Text

Daily Summary for March 22, 2017 Units:  Metric    English   Both
« Previous Day
Next Day »
Daily Weekly Monthly Yearly Custom
  High: Low: Average:
Temperature: 7.4 °C -3.8 °C 2.2 °C
Dew Point: 0.3 °C -16.4 °C -8.8 °C
Humidity: 62 % 30 % 45 %
Wind Speed: 28.6 km/h 0 km/h 11.4 km/h
Wind Gust: 44.4 km/h - -
Wind:- - WNW
Pressure: 1029.3 hPa 1009.4 hPa -
Precipitation: 0 mm    
Historical Graphs
 
 
Tabular Data for March 22, 2017
Time Temperature Dew Point Pressure Wind Wind Speed Wind Gust Humidity Rainfall Rate (Hourly)
00:01 7.4 °C 0.3 °C 1009.7 hPa Calm     61 % 0 mm
00:06 7.2 °C 0.2 °C 1009.7 hPa Calm     61 % 0 mm
00:11 7.1 °C 0.1 °C 1009.7 hPa Calm     61 % 0 mm
00:12 7.1 °C 0.1 °C 1009.7 hPa Calm     61 % 0 mm
00:17 6.9 °C -0.1 °C 1009.7 hPa Calm     61 % 0 mm
00:22 6.8 °C -0.4 °C 1009.7 hPa Calm     60 % 0 mm
00:27 6.8 °C -0.2 °C 1009.7 hPa Calm     61 % 0 mm
00:28 6.8 °C -0.2 °C 1010 hPa Calm     61 % 0 mm
00:33 6.8 °C -0.2 °C 1009.7 hPa Calm     61 % 0 mm
00:38 6.8 °C -0.2 °C 1010 hPa Calm     61 % 0 mm
00:43 6.8 °C -0.2 °C 1010 hPa Calm     61 % 0 mm
00:48 6.7 °C -0.3 °C 1010 hPa Calm     61 % 0 mm
00:53 6.6 °C -0.2 °C 1010 hPa Calm   1.9 km/h 62 % 0 mm
00:58 6.6 °C -0.2 °C 1010 hPa WNW 1 km/h 1.9 km/h 62 % 0 mm
01:03 6.5 °C -0.3 °C 1010 hPa Calm     62 % 0 mm
01:08 6.4 °C -0.6 °C 1010 hPa Calm     61 % 0 mm
01:13 6.3 °C -0.7 °C 1010 hPa WNW 0.2 km/h 1.9 km/h 61 % 0 mm
01:18 6.3 °C -0.7 °C 1010 hPa Calm     61 % 0 mm
01:23 6.2 °C -1 °C 1010 hPa Calm   1.9 km/h 60 % 0 mm
01:28 6.1 °C -1.1 °C 1010 hPa Calm     60 % 0 mm
01:33 6 °C -1.2 °C 1010 hPa Calm   1.9 km/h 60 % 0 mm
01:38 5.9 °C -1.2 °C 1009.7 hPa WNW 0.3 km/h 1.9 km/h 60 % 0 mm
01:43 5.8 °C -1.3 °C 1009.7 hPa WNW 0.2 km/h 1.9 km/h 60 % 0 mm
01:48 5.7 °C -1.3 °C 1009.7 hPa WNW 1.6 km/h 3.7 km/h 61 % 0 mm
01:53 5.6 °C -1.4 °C 1009.7 hPa WNW 1 km/h 3.7 km/h 61 % 0 mm
01:58 5.4 °C -1.3 °C 1009.7 hPa WNW 1.4 km/h 3.7 km/h 62 % 0 mm
02:03 5.4 °C -1.3 °C 1009.7 hPa WNW 1 km/h 1.9 km/h 62 % 0 mm
02:08 5.3 °C -1.7 °C 1009.7 hPa WNW 1 km/h 3.7 km/h 61 % 0 mm
02:13 5.1 °C -1.8 °C 1009.7 hPa WNW 1.6 km/h 3.7 km/h 61 % 0 mm
02:18 4.9 °C -1.7 °C 1009.7 hPa WNW 0.6 km/h 1.9 km/h 62 % 0 mm
02:20 4.9 °C -1.7 °C 1009.7 hPa WNW 0.3 km/h 3.2 km/h 62 % 0 mm
02:25 4.9 °C -2 °C 1009.4 hPa West 0.8 km/h 3.2 km/h 61 % 0 mm
02:30 4.8 °C -2.3 °C 1009.4 hPa West 0.6 km/h 1.9 km/h 60 % 0 mm
02:35 4.8 °C -2.5 °C 1009.4 hPa West 2.4 km/h 3.2 km/h 59 % 0 mm
02:40 4.8 °C -2.3 °C 1009.4 hPa West 0.8 km/h 3.7 km/h 60 % 0 mm
02:45 4.7 °C -2.2 °C 1009.7 hPa West 1.8 km/h 5.6 km/h 61 % 0 mm
02:50 4.7 °C -2.4 °C 1009.4 hPa WSW 3.4 km/h 7.4 km/h 60 % 0 mm
02:55 4.6 °C -2.9 °C 1009.4 hPa West 1.3 km/h 5.6 km/h 58 % 0 mm
03:01 4.7 °C -3.6 °C 1009.4 hPa WNW 3.4 km/h 9.3 km/h 55 % 0 mm
03:06 4.9 °C -3.3 °C 1009.4 hPa West 3.1 km/h 5.6 km/h 55 % 0 mm
03:11 5.1 °C -3.3 °C 1009.4 hPa WNW 1 km/h 5.6 km/h 55 % 0 mm
03:16 5.3 °C -3.2 °C 1009.4 hPa West 1.8 km/h 5.6 km/h 54 % 0 mm
03:21 5.5 °C -3.3 °C 1009.7 hPa WSW 7.2 km/h 9.3 km/h 53 % 0 mm
03:26 5.8 °C -3.3 °C 1009.4 hPa West 5.8 km/h 7.4 km/h 52 % 0 mm
03:31 6.1 °C -3.8 °C 1009.7 hPa West 7.9 km/h 14.8 km/h 49 % 0 mm
03:36 6.4 °C -3.5 °C 1009.7 hPa WSW 8.2 km/h 18.5 km/h 49 % 0 mm
03:41 6.6 °C -3.4 °C 1009.7 hPa WNW 6.3 km/h 11.3 km/h 49 % 0 mm
03:46 6.7 °C -3.3 °C 1009.7 hPa NW 4.5 km/h 13 km/h 49 % 0 mm
03:51 6.7 °C -3.3 °C 1009.7 hPa West 7.4 km/h 16.7 km/h 49 % 0 mm
03:56 6.7 °C -2.7 °C 1009.7 hPa WNW 12.1 km/h 18.5 km/h 51 % 0 mm
04:01 6.7 °C -2.4 °C 1009.7 hPa West 10.6 km/h 18.5 km/h 52 % 0 mm
04:06 6.7 °C -2.5 °C 1010 hPa NW 7.1 km/h 13 km/h 52 % 0 mm
04:11 6.6 °C -2.3 °C 1010 hPa NW 7.7 km/h 14.8 km/h 53 % 0 mm
04:16 6.6 °C -2.1 °C 1010 hPa WNW 5.1 km/h 14.8 km/h 54 % 0 mm
04:21 6.5 °C -2.2 °C 1009.7 hPa West 6.4 km/h 14.5 km/h 54 % 0 mm
04:26 6.4 °C -2.2 °C 1010 hPa NW 5.6 km/h 14.8 km/h 54 % 0 mm
04:31 6.4 °C -2 °C 1010 hPa NW 4.8 km/h 14.8 km/h 55 % 0 mm
04:36 6.3 °C -1.8 °C 1010 hPa WSW 9.8 km/h 16.7 km/h 56 % 0 mm
04:41 6.3 °C -2.1 °C 1010 hPa West 6 km/h 20.4 km/h 55 % 0 mm
04:47 6.2 °C -1.9 °C 1010 hPa WNW 7.2 km/h 24.1 km/h 56 % 0 mm
04:52 6.1 °C -2.3 °C 1010 hPa West 9.5 km/h 18.5 km/h 55 % 0 mm
04:57 6.1 °C -2.3 °C 1010 hPa NW 8.9 km/h 11.3 km/h 55 % 0 mm
05:02 5.9 °C -2.2 °C 1010.4 hPa WSW 8.9 km/h 24.1 km/h 56 % 0 mm
05:07 5.9 °C -2.2 °C 1010.4 hPa WNW 11.3 km/h 22.2 km/h 56 % 0 mm
05:12 5.8 °C -2.3 °C 1010.7 hPa West 8.4 km/h 18.5 km/h 56 % 0 mm
05:17 5.7 °C -2.9 °C 1010.7 hPa WNW 12.6 km/h 27.8 km/h 54 % 0 mm
05:22 5.6 °C -3.1 °C 1010.7 hPa WSW 10.9 km/h 24.1 km/h 54 % 0 mm
05:27 5.4 °C -2.7 °C 1010.7 hPa NW 14.3 km/h 22.2 km/h 56 % 0 mm
05:32 5.3 °C -2.6 °C 1011.1 hPa NW 14.5 km/h 29.6 km/h 57 % 0 mm
05:37 5.1 °C -2.9 °C 1011.1 hPa North 12.1 km/h 20.4 km/h 56 % 0 mm
05:42 5 °C -3.3 °C 1011.4 hPa WNW 17.7 km/h 27.8 km/h 55 % 0 mm
05:47 4.9 °C -3.4 °C 1011.4 hPa WNW 9.8 km/h 32.2 km/h 55 % 0 mm
05:52 4.8 °C -3.8 °C 1011.7 hPa West 18.8 km/h 35.2 km/h 54 % 0 mm
05:57 4.6 °C -4.2 °C 1011.7 hPa WNW 20.4 km/h 38.9 km/h 53 % 0 mm
06:02 4.5 °C -4 °C 1011.7 hPa West 9.2 km/h 18.5 km/h 54 % 0 mm
06:07 4.4 °C -4.1 °C 1012.1 hPa NW 6.4 km/h 6.4 km/h 54 % 0 mm
06:12 4.3 °C -4 °C 1012.4 hPa WNW 14.2 km/h 22.2 km/h 55 % 0 mm
06:17 4.2 °C -4.3 °C 1012.4 hPa WNW 14.6 km/h 24.1 km/h 54 % 0 mm
06:22 4.1 °C -4.2 °C 1012.8 hPa WNW 18.3 km/h 25.9 km/h 55 % 0 mm
06:27 4 °C -4.2 °C 1012.8 hPa NNW 13.8 km/h 25.9 km/h 55 % 0 mm
06:32 3.9 °C -4.1 °C 1012.4 hPa West 14.8 km/h 25.7 km/h 56 % 0 mm
06:37 3.8 °C -3.9 °C 1012.8 hPa WNW 14.2 km/h 25.7 km/h 57 % 0 mm
06:42 3.7 °C -4 °C 1012.8 hPa WNW 12.9 km/h 20.4 km/h 57 % 0 mm
06:47 3.7 °C -4.1 °C 1012.8 hPa West 6.4 km/h 16.7 km/h 57 % 0 mm
06:52 3.6 °C -4.1 °C 1012.8 hPa WNW 10.1 km/h 16.7 km/h 57 % 0 mm
06:57 3.6 °C -4.2 °C 1012.8 hPa West 9.3 km/h 22.2 km/h 57 % 0 mm
07:02 3.6 °C -3.9 °C 1012.8 hPa WNW 9.8 km/h 25.9 km/h 58 % 0 mm
07:07 3.5 °C -4 °C 1012.8 hPa WNW 10.6 km/h 16.7 km/h 58 % 0 mm
07:12 3.5 °C -4.2 °C 1012.8 hPa West 10.9 km/h 24.1 km/h 57 % 0 mm
07:17 3.5 °C -4 °C 1013.1 hPa WNW 10.9 km/h 20.4 km/h 58 % 0 mm
07:22 3.5 °C -4 °C 1013.1 hPa NW 17.1 km/h 20.4 km/h 58 % 0 mm
07:27 3.5 °C -4 °C 1013.1 hPa NW 11.6 km/h 20.4 km/h 58 % 0 mm
07:32 3.6 °C -3.9 °C 1013.1 hPa North 11.9 km/h 25.9 km/h 58 % 0 mm
07:42 3.7 °C -4.1 °C 1013.1 hPa West 10.6 km/h 20.4 km/h 57 % 0 mm
07:48 3.7 °C -4.3 °C 1013.1 hPa WNW 14.5 km/h 38.6 km/h 56 % 0 mm
07:53 3.8 °C -4.7 °C 1013.1 hPa WNW 18.2 km/h 29.6 km/h 54 % 0 mm
07:57 3.8 °C -4.4 °C 1013.4 hPa NW 11.1 km/h 18.5 km/h 55 % 0 mm
08:03 3.9 °C -4.3 °C 1013.4 hPa WNW 12.9 km/h 27.4 km/h 55 % 0 mm
08:08 3.9 °C -5.1 °C 1013.8 hPa NW 12.9 km/h 27.4 km/h 52 % 0 mm
08:13 3.9 °C -4.6 °C 1013.8 hPa NW 15.4 km/h 25.9 km/h 54 % 0 mm
08:18 3.9 °C -4.6 °C 1013.8 hPa WNW 12.9 km/h 38.6 km/h 54 % 0 mm
08:23 4 °C -4.5 °C 1013.8 hPa West 10.8 km/h 35.2 km/h 54 % 0 mm
08:29 4.1 °C -3.9 °C 1013.8 hPa NW 15.1 km/h 18.5 km/h 56 % 0 mm
08:34 4.1 °C -4.6 °C 1013.8 hPa NW 15.1 km/h 22.2 km/h 53 % 0 mm
08:39 4.1 °C -4.6 °C 1014.1 hPa WNW 21.9 km/h 33.3 km/h 53 % 0 mm
08:44 3.9 °C -4.8 °C 1014.1 hPa WNW 16.1 km/h 42.6 km/h 53 % 0 mm
08:49 3.7 °C -5 °C 1014.4 hPa WNW 18.3 km/h 35.2 km/h 53 % 0 mm
08:54 3.6 °C -4.9 °C 1014.4 hPa WNW 22.7 km/h 44.4 km/h 54 % 0 mm
08:59 3.5 °C -5.4 °C 1014.8 hPa NW 14 km/h 31.5 km/h 52 % 0 mm
09:09 3.5 °C -4.7 °C 1014.8 hPa NW 12.4 km/h 18.5 km/h 55 % 0 mm
09:14 3.4 °C -5 °C 1015.1 hPa NNW 12.9 km/h 35.2 km/h 54 % 0 mm
09:19 3.3 °C -5.3 °C 1015.1 hPa NNW 18.8 km/h 31.5 km/h 53 % 0 mm
09:24 3.2 °C -6.6 °C 1015.5 hPa NW 14.5 km/h 24.1 km/h 49 % 0 mm
09:29 3 °C -7.5 °C 1015.5 hPa NNE 20.8 km/h 33.3 km/h 46 % 0 mm
09:34 2.8 °C -7.4 °C 1015.5 hPa NNW 15.6 km/h 31.5 km/h 47 % 0 mm
09:39 2.7 °C -6.9 °C 1015.8 hPa WNW 17.1 km/h 30.6 km/h 49 % 0 mm
09:44 2.6 °C -7.3 °C 1015.8 hPa North 18.3 km/h 31.5 km/h 48 % 0 mm
09:49 2.6 °C -6.5 °C 1016.1 hPa NW 19.8 km/h 30.6 km/h 51 % 0 mm
09:54 2.7 °C -7 °C 1016.1 hPa NW 18.3 km/h 31.5 km/h 49 % 0 mm
09:59 2.7 °C -6.7 °C 1016.1 hPa WNW 11.7 km/h 33.3 km/h 50 % 0 mm
10:04 2.7 °C -7.8 °C 1016.1 hPa West 15.8 km/h 40.7 km/h 46 % 0 mm
10:09 2.6 °C -7.6 °C 1016.1 hPa NW 21.4 km/h 33.3 km/h 47 % 0 mm
10:19 2.5 °C -7.7 °C 1016.5 hPa NW 16.9 km/h 29.6 km/h 47 % 0 mm
10:24 2.6 °C -7.6 °C 1016.5 hPa West 12.1 km/h 22.2 km/h 47 % 0 mm
10:29 2.7 °C -8.4 °C 1016.8 hPa NW 20.4 km/h 37 km/h 44 % 0 mm
10:34 2.7 °C -8.1 °C 1016.8 hPa NW 14.5 km/h 31.5 km/h 45 % 0 mm
10:39 2.7 °C -7.8 °C 1016.8 hPa NW 17.7 km/h 31.5 km/h 46 % 0 mm
10:44 2.8 °C -7.7 °C 1017.2 hPa WNW 14.3 km/h 20.4 km/h 46 % 0 mm
10:50 2.8 °C -8.6 °C 1016.8 hPa NNW 17.4 km/h 31.5 km/h 43 % 0 mm
10:55 2.9 °C -7.9 °C 1016.8 hPa NW 15.1 km/h 37 km/h 45 % 0 mm
11:00 3 °C -7.5 °C 1017.2 hPa WNW 15.8 km/h 35.2 km/h 46 % 0 mm
11:05 3.1 °C -7.4 °C 1017.2 hPa WNW 14.3 km/h 30.6 km/h 46 % 0 mm
11:10 3.1 °C -8.1 °C 1017.5 hPa West 16.3 km/h 33.8 km/h 44 % 0 mm
11:15 3.1 °C -7.4 °C 1017.5 hPa NNW 17.5 km/h 29 km/h 46 % 0 mm
11:20 3.2 °C -8.2 °C 1017.5 hPa North 12.4 km/h 24.1 km/h 43 % 0 mm
11:25 3.3 °C -8.1 °C 1017.8 hPa NNW 8.7 km/h 29.6 km/h 43 % 0 mm
11:35 3.3 °C -8.4 °C 1017.8 hPa WNW 19.3 km/h 31.5 km/h 42 % 0 mm
11:40 3.2 °C -8.6 °C 1017.8 hPa WSW 14.3 km/h 31.5 km/h 42 % 0 mm
11:45 3.1 °C -8.6 °C 1017.8 hPa WNW 28.6 km/h 35.2 km/h 42 % 0 mm
11:50 2.9 °C -9.1 °C 1018.2 hPa NW 10.5 km/h 25.9 km/h 41 % 0 mm
11:56 3 °C -7.8 °C 1018.2 hPa WNW 11.3 km/h 30.6 km/h 45 % 0 mm
12:01 3 °C -9.3 °C 1018.2 hPa NNW 20.8 km/h 33.3 km/h 40 % 0 mm
12:06 2.9 °C -9.4 °C 1018.2 hPa NW 11.3 km/h 27.8 km/h 40 % 0 mm
12:11 2.9 °C -9.4 °C 1018.5 hPa WNW 15 km/h 25.9 km/h 40 % 0 mm
12:16 2.8 °C -9.8 °C 1018.5 hPa NNW 22.7 km/h 37 km/h 39 % 0 mm
12:21 2.8 °C -9.4 °C 1018.5 hPa NW 11.3 km/h 27.8 km/h 40 % 0 mm
12:26 2.7 °C -9.9 °C 1018.5 hPa NW 11.1 km/h 31.5 km/h 39 % 0 mm
12:31 2.7 °C -10.2 °C 1018.5 hPa WNW 17.1 km/h 40.7 km/h 38 % 0 mm
12:36 2.8 °C -10.2 °C 1018.5 hPa WNW 19.3 km/h 31.5 km/h 38 % 0 mm
12:41 2.7 °C -10.9 °C 1018.8 hPa NNW 13.2 km/h 33.3 km/h 36 % 0 mm
12:46 2.7 °C -10.3 °C 1018.8 hPa West 15.4 km/h 29.6 km/h 38 % 0 mm
12:51 2.6 °C -11 °C 1018.8 hPa WNW 19.6 km/h 29.6 km/h 36 % 0 mm
12:56 2.6 °C -10.7 °C 1018.8 hPa WSW 10.1 km/h 20.4 km/h 37 % 0 mm
13:01 2.6 °C -11.3 °C 1018.8 hPa NW 19.5 km/h 33.3 km/h 35 % 0 mm
13:06 2.5 °C -12.2 °C 1019.2 hPa NW 15.1 km/h 29.6 km/h 33 % 0 mm
13:11 2.4 °C -12.3 °C 1019.2 hPa NNW 19 km/h 31.5 km/h 33 % 0 mm
13:16 2.3 °C -12 °C 1019.2 hPa WNW 20.3 km/h 33.3 km/h 34 % 0 mm
13:21 2.3 °C -12.4 °C 1019.5 hPa North 13.7 km/h 27.8 km/h 33 % 0 mm
13:26 2.5 °C -10.7 °C 1019.5 hPa WNW 7.7 km/h 20.9 km/h 37 % 0 mm
13:31 2.7 °C -12 °C 1019.5 hPa West 10.9 km/h 22.2 km/h 33 % 0 mm
13:36 2.8 °C -11.2 °C 1019.5 hPa NNW 20.3 km/h 31.5 km/h 35 % 0 mm
13:42 2.9 °C -11.8 °C 1019.2 hPa North 19.2 km/h 33.3 km/h 33 % 0 mm
13:47 2.8 °C -11.9 °C 1019.5 hPa NNW 13.5 km/h 24.1 km/h 33 % 0 mm
13:52 2.8 °C -11.6 °C 1019.5 hPa NNW 16.7 km/h 29.6 km/h 34 % 0 mm
13:57 2.6 °C -12.9 °C 1019.9 hPa North 17.7 km/h 29.6 km/h 31 % 0 mm
14:02 2.5 °C -11.8 °C 1019.9 hPa NW 12.2 km/h 22.2 km/h 34 % 0 mm
14:07 2.6 °C -11.4 °C 1019.9 hPa NW 6.1 km/h 18.5 km/h 35 % 0 mm
14:12 2.8 °C -11.2 °C 1020.2 hPa North 14.5 km/h 22.2 km/h 35 % 0 mm
14:14 2.8 °C -11.6 °C 1019.9 hPa NW 15.3 km/h 25.9 km/h 34 % 0 mm
14:19 2.7 °C -11.2 °C 1020.2 hPa NW 14.6 km/h 29.6 km/h 35 % 0 mm
14:24 2.7 °C -10.9 °C 1020.2 hPa NW 15.1 km/h 24.1 km/h 36 % 0 mm
14:29 2.8 °C -10.8 °C 1020.2 hPa WNW 13 km/h 29.6 km/h 36 % 0 mm
14:34 2.9 °C -10.7 °C 1020.2 hPa NE 10 km/h 16.7 km/h 36 % 0 mm
14:39 3 °C -11.4 °C 1020.2 hPa NNW 17.2 km/h 22.2 km/h 34 % 0 mm
14:44 2.8 °C -12.3 °C 1020.5 hPa NNW 12.2 km/h 18.5 km/h 32 % 0 mm
14:49 2.7 °C -11.2 °C 1020.5 hPa North 11.3 km/h 30.6 km/h 35 % 0 mm
14:54 2.7 °C -11.7 °C 1020.5 hPa North 12.9 km/h 29.6 km/h 34 % 0 mm
14:59 2.4 °C -12.6 °C 1020.5 hPa NW 12.6 km/h 31.5 km/h 32 % 0 mm
15:04 2.3 °C -12.7 °C 1020.5 hPa WNW 14.5 km/h 27.4 km/h 32 % 0 mm
15:09 2.3 °C -12.8 °C 1020.2 hPa WNW 15 km/h 24.1 km/h 32 % 0 mm
15:14 2.3 °C -13.2 °C 1020.2 hPa NW 17.2 km/h 27.8 km/h 31 % 0 mm
15:19 2.4 °C -10.8 °C 1020.2 hPa WNW 7.1 km/h 20.4 km/h 37 % 0 mm
15:24 2.4 °C -11.9 °C 1020.5 hPa North 15 km/h 25.9 km/h 34 % 0 mm
15:25 2.3 °C -11.9 °C 1020.5 hPa North 9.7 km/h 27.8 km/h 34 % 0 mm
15:26 2.3 °C -11.9 °C 1020.5 hPa NNE 11.4 km/h 22.2 km/h 34 % 0 mm
15:27 2.3 °C -11.6 °C 1020.5 hPa NNW 12.2 km/h 29.6 km/h 35 % 0 mm
15:30 2.3 °C -12.4 °C 1020.5 hPa NNE 17.7 km/h 27.8 km/h 33 % 0 mm
15:35 2.2 °C -12.1 °C 1020.5 hPa North 19.6 km/h 32.2 km/h 34 % 0 mm
15:37 2.1 °C -12.6 °C 1020.5 hPa NNE 14.8 km/h 17.7 km/h 33 % 0 mm
15:39 2.1 °C -12.9 °C 1020.5 hPa NNE 12.4 km/h 32.2 km/h 32 % 0 mm
15:44 1.9 °C -13.1 °C 1020.9 hPa NNW 10.6 km/h 35.2 km/h 32 % 0 mm
15:50 1.8 °C -12.8 °C 1020.5 hPa North 12.7 km/h 22.2 km/h 33 % 0 mm
15:55 1.6 °C -13.3 °C 1020.5 hPa NNW 16.7 km/h 31.5 km/h 32 % 0 mm
15:57 1.6 °C -13.4 °C 1020.9 hPa North 13.5 km/h 27.8 km/h 32 % 0 mm
16:02 1.5 °C -13.1 °C 1020.9 hPa North 17.4 km/h 24.1 km/h 33 % 0 mm
16:06 1.4 °C -13.5 °C 1021.2 hPa NNW 14 km/h 22.5 km/h 32 % 0 mm
16:11 1.4 °C -12.7 °C 1021.2 hPa NW 13.2 km/h 25.9 km/h 34 % 0 mm
16:16 1.4 °C -13.5 °C 1021.2 hPa NW 14.6 km/h 20.9 km/h 32 % 0 mm
16:26 1.3 °C -14.4 °C 1021.6 hPa NNW 18.8 km/h 33.3 km/h 30 % 0 mm
16:31 1.2 °C -13.7 °C 1021.6 hPa NNW 14.2 km/h 30.6 km/h 32 % 0 mm
16:35 1.1 °C -14.2 °C 1021.6 hPa North 19.3 km/h 31.5 km/h 31 % 0 mm
16:40 1.1 °C -14.2 °C 1021.6 hPa North 13.7 km/h 31.5 km/h 31 % 0 mm
16:45 1.1 °C -13.1 °C 1021.6 hPa NW 16.7 km/h 31.5 km/h 34 % 0 mm
16:50 1.1 °C -13.4 °C 1021.6 hPa NW 12.7 km/h 35.2 km/h 33 % 0 mm
16:55 0.9 °C -14.3 °C 1021.9 hPa NNW 20.1 km/h 31.5 km/h 31 % 0 mm
17:00 0.8 °C -14.1 °C 1021.9 hPa NNW 17.4 km/h 25.9 km/h 32 % 0 mm
17:05 0.7 °C -13.8 °C 1022.2 hPa North 18.2 km/h 25.9 km/h 33 % 0 mm
17:08 0.6 °C -14.7 °C 1022.2 hPa North 14.3 km/h 31.5 km/h 31 % 0 mm
17:09 0.5 °C -13.9 °C 1021.9 hPa NW 13.2 km/h 24.1 km/h 33 % 0 mm
17:10 0.5 °C -13.6 °C 1022.2 hPa NNE 13.2 km/h 24.1 km/h 34 % 0 mm
17:15 0.3 °C -13.8 °C 1022.2 hPa NW 11.3 km/h 22.5 km/h 34 % 0 mm
17:25 0.2 °C -13.9 °C 1022.2 hPa NW 16.9 km/h 25.7 km/h 34 % 0 mm
17:30 0.1 °C -13.6 °C 1022.6 hPa North 15.4 km/h 29.6 km/h 35 % 0 mm
17:35 0 °C -14.4 °C 1022.6 hPa North 11.1 km/h 16.7 km/h 33 % 0 mm
17:41 -0.1 °C -14.4 °C 1022.9 hPa NW 14.2 km/h 22.2 km/h 33 % 0 mm
17:46 -0.1 °C -14.5 °C 1022.9 hPa NW 10.9 km/h 22.5 km/h 33 % 0 mm
17:51 -0.2 °C -14.6 °C 1022.9 hPa North 8.9 km/h 22.2 km/h 33 % 0 mm
17:56 -0.2 °C -13.5 °C 1022.9 hPa NNW 10.9 km/h 31.5 km/h 36 % 0 mm
18:01 -0.3 °C -14.6 °C 1023.2 hPa North 11.3 km/h 25.9 km/h 33 % 0 mm
18:06 -0.3 °C -13.9 °C 1023.2 hPa NNW 11.6 km/h 25.9 km/h 35 % 0 mm
18:13 -0.4 °C -14.1 °C 1023.2 hPa NW 12.7 km/h 27.4 km/h 35 % 0 mm
18:18 -0.6 °C -14.6 °C 1023.6 hPa NW 12.2 km/h 24.1 km/h 34 % 0 mm
18:23 -0.7 °C -13.3 °C 1023.9 hPa NNW 11.1 km/h 20.9 km/h 38 % 0 mm
18:28 -0.8 °C -14 °C 1023.9 hPa NW 16.9 km/h 33.3 km/h 36 % 0 mm
18:33 -0.8 °C -14.4 °C 1023.9 hPa NNE 15.6 km/h 27.8 km/h 35 % 0 mm
18:38 -0.9 °C -14.5 °C 1024.3 hPa NW 14.6 km/h 25.9 km/h 35 % 0 mm
18:43 -1 °C -14.2 °C 1024.6 hPa North 14.5 km/h 25.9 km/h 36 % 0 mm
18:48 -1.1 °C -13.6 °C 1024.6 hPa NNW 18.3 km/h 33.8 km/h 38 % 0 mm
18:53 -1.1 °C -14.3 °C 1024.6 hPa NW 12.4 km/h 25.9 km/h 36 % 0 mm
18:58 -1.2 °C -13.7 °C 1024.6 hPa North 16.9 km/h 29.6 km/h 38 % 0 mm
19:04 -1.2 °C -14.4 °C 1024.6 hPa NNW 15.3 km/h 27.8 km/h 36 % 0 mm
19:09 -1.3 °C -14.1 °C 1024.9 hPa NW 15.6 km/h 31.5 km/h 37 % 0 mm
19:14 -1.3 °C -14.2 °C 1024.9 hPa NW 12.7 km/h 27.8 km/h 37 % 0 mm
19:19 -1.4 °C -13.9 °C 1025.3 hPa NNW 10.9 km/h 20.4 km/h 38 % 0 mm
19:24 -1.4 °C -14.6 °C 1025.3 hPa NNW 11.3 km/h 18.5 km/h 36 % 0 mm
19:29 -1.5 °C -14.3 °C 1025.3 hPa NW 9.5 km/h 31.5 km/h 37 % 0 mm
19:34 -1.6 °C -14.4 °C 1025.6 hPa NW 14.5 km/h 27.8 km/h 37 % 0 mm
19:39 -1.7 °C -14.5 °C 1025.6 hPa NNW 8 km/h 13 km/h 37 % 0 mm
19:44 -1.7 °C -14.2 °C 1025.6 hPa NNW 8.5 km/h 13 km/h 38 % 0 mm
19:49 -1.7 °C -14.2 °C 1025.6 hPa NNW 9.7 km/h 16.7 km/h 38 % 0 mm
19:54 -1.8 °C -14.9 °C 1026 hPa North 7.7 km/h 24.1 km/h 36 % 0 mm
19:59 -1.8 °C -14.6 °C 1025.6 hPa NW 3.9 km/h 19.3 km/h 37 % 0 mm
20:04 -1.9 °C -14.1 °C 1026 hPa NW 11.7 km/h 18.5 km/h 39 % 0 mm
20:09 -1.9 °C -14.4 °C 1026 hPa North 14.5 km/h 31.5 km/h 38 % 0 mm
20:14 -2 °C -14.1 °C 1026 hPa NNW 13.2 km/h 27.8 km/h 39 % 0 mm
20:19 -2.1 °C -13.6 °C 1026.3 hPa NW 12.4 km/h 31.5 km/h 41 % 0 mm
20:24 -2.1 °C -13.6 °C 1026.3 hPa NNW 13.7 km/h 25.9 km/h 41 % 0 mm
20:30 -2.2 °C -14 °C 1026.3 hPa NNW 16.9 km/h 33.3 km/h 40 % 0 mm
20:34 -2.2 °C -13.7 °C 1026.3 hPa NW 18.7 km/h 29.6 km/h 41 % 0 mm
20:40 -2.3 °C -13.8 °C 1026.6 hPa NNW 13.5 km/h 25.9 km/h 41 % 0 mm
20:45 -2.3 °C -13.8 °C 1027 hPa NW 16.9 km/h 33.3 km/h 41 % 0 mm
20:50 -2.3 °C -13.8 °C 1027 hPa NNW 10.9 km/h 22.2 km/h 41 % 0 mm
20:55 -2.4 °C -13.6 °C 1027 hPa NNW 10.5 km/h 18.5 km/h 42 % 0 mm
21:00 -2.4 °C -14.2 °C 1027 hPa North 11.4 km/h 19.3 km/h 40 % 0 mm
21:05 -2.5 °C -14 °C 1027.3 hPa NW 11.1 km/h 31.5 km/h 41 % 0 mm
21:10 -2.6 °C -14.3 °C 1027.3 hPa NW 7.2 km/h 22.2 km/h 40 % 0 mm
21:15 -2.7 °C -14.1 °C 1027.3 hPa NNW 14.5 km/h 25.7 km/h 41 % 0 mm
21:20 -2.7 °C -14.4 °C 1027.7 hPa North 12.2 km/h 22.5 km/h 40 % 0 mm
21:25 -2.7 °C -14.5 °C 1027.7 hPa NNW 11.7 km/h 25.9 km/h 40 % 0 mm
21:30 -2.8 °C -15.2 °C 1027.7 hPa North 11.9 km/h 24.1 km/h 38 % 0 mm
21:31 -2.8 °C -15.2 °C 1028 hPa NNW 10.5 km/h 22.2 km/h 38 % 0 mm
21:36 -2.9 °C -15.3 °C 1028 hPa NW 13.2 km/h 22.2 km/h 38 % 0 mm
21:41 -2.9 °C -15.3 °C 1028 hPa NNW 15 km/h 24.1 km/h 38 % 0 mm
21:46 -3.1 °C -15.7 °C 1028 hPa NNW 15.8 km/h 31.5 km/h 37 % 0 mm
21:51 -3.1 °C -15.7 °C 1028 hPa WNW 11.3 km/h 18.5 km/h 37 % 0 mm
21:56 -3.1 °C -15.4 °C 1028 hPa NW 13.5 km/h 20.4 km/h 38 % 0 mm
22:01 -3.2 °C -15.2 °C 1028 hPa NNW 16.4 km/h 20.9 km/h 39 % 0 mm
22:06 -3.2 °C -15.9 °C 1028 hPa NNW 15 km/h 27.8 km/h 37 % 0 mm
22:11 -3.2 °C -15.2 °C 1028 hPa NNW 12.1 km/h 24.1 km/h 39 % 0 mm
22:16 -3.3 °C -15.6 °C 1028 hPa NNW 13 km/h 20.4 km/h 38 % 0 mm
22:21 -3.3 °C -15.3 °C 1028 hPa NNW 11.3 km/h 20.4 km/h 39 % 0 mm
22:26 -3.3 °C -14.7 °C 1028.3 hPa NNE 9 km/h 22.5 km/h 41 % 0 mm
22:32 -3.3 °C -15.7 °C 1028.3 hPa NNW 9.5 km/h 24.1 km/h 38 % 0 mm
22:37 -3.4 °C -16 °C 1028.3 hPa North 14.3 km/h 24.1 km/h 37 % 0 mm
22:42 -3.4 °C -15.7 °C 1028.3 hPa North 7.9 km/h 18.5 km/h 38 % 0 mm
22:47 -3.4 °C -16.1 °C 1028.7 hPa NW 17.1 km/h 27.8 km/h 37 % 0 mm
22:52 -3.4 °C -16.1 °C 1028.7 hPa NNW 12.1 km/h 24.1 km/h 37 % 0 mm
22:57 -3.5 °C -16.4 °C 1028.7 hPa North 11.3 km/h 18.5 km/h 36 % 0 mm
23:02 -3.5 °C -15.8 °C 1028.7 hPa NNW 12.4 km/h 25.7 km/h 38 % 0 mm
23:07 -3.6 °C -15.8 °C 1028.7 hPa North 6.6 km/h 11.1 km/h 38 % 0 mm
23:12 -3.6 °C -16.2 °C 1028.7 hPa North 9.3 km/h 16.7 km/h 37 % 0 mm
23:17 -3.6 °C -15.9 °C 1028.7 hPa NW 10 km/h 18.5 km/h 38 % 0 mm
23:22 -3.6 °C -15.9 °C 1028.7 hPa NW 4.8 km/h 9.7 km/h 38 % 0 mm
23:27 -3.7 °C -15.9 °C 1028.7 hPa North 11.1 km/h 22.2 km/h 38 % 0 mm
23:32 -3.7 °C -15.3 °C 1029 hPa NNE 13.4 km/h 24.1 km/h 40 % 0 mm
23:37 -3.7 °C -15.7 °C 1029 hPa NNW 8.9 km/h 20.4 km/h 39 % 0 mm
23:42 -3.7 °C -15.4 °C 1029 hPa NNW 10.5 km/h 16.7 km/h 40 % 0 mm
23:47 -3.8 °C -15.7 °C 1029 hPa North 11.3 km/h 18.5 km/h 39 % 0 mm
23:53 -3.8 °C -15.7 °C 1029.3 hPa NW 10.5 km/h 16.7 km/h 39 % 0 mm
23:58 -3.8 °C -15.5 °C 1029.3 hPa NNW 10.1 km/h 18.5 km/h 40 % 0 mm
Crab Meadow Weather
Compliments of Weather Underground - 3 mb

Script developed by  Jim McMurry - jmcmurry@mwt.net Adapted for the template by  Wim van der Kuil - Leuven-Template.eu

Weather Terms: Enhanced Fujita Scale or EF-Scale - A scale of wind damage intensity in which wind speeds are inferred from analysis of wind damage. All tornadoes and most other windstorms are assigned a numerical rating from this scale according to the most intense damage caused by the storm. EF0 (weak) 6585 mph, light damage EF1 (weak) 86110 mph, moderate damage EF2 (strong) 111135 mph, considerable damage EF3 (strong) 136165 mph, severe damage EF4 (violent) 166200 mph, devastating damage EF5 (violent) >200 mph, incredible damage.